Time,TemperatureF,DewpointF,PressureIn,WindDirection,WindDirectionDegrees,WindSpeedMPH,WindSpeedGustMPH,Humidity,HourlyPrecipIn,Conditions,Clouds,dailyrainin,SoftwareType,DateUTC
2013-08-10 04:00:00,72.0,66.0,30.12,NW,320,28.0,-999.0,83,-99.99,,,-99.99,,2013-08-10 04:00:00,
2013-08-10 04:32:00,72.0,66.0,30.12,NW,320,28.0,-999.0,83,-99.99,,,-99.99,,2013-08-10 04:32:00,
2013-08-10 04:42:00,72.0,66.0,30.12,NW,320,28.0,-999.0,83,-99.99,,,-99.99,,2013-08-10 04:42:00,
2013-08-10 04:53:00,72.0,66.0,30.12,NW,320,28.0,-999.0,83,-99.99,,,-99.99,,2013-08-10 04:53:00,
2013-08-10 07:00:00,71.0,63.0,30.15,North,350,22.0,-999.0,75,-99.99,,,-99.99,,2013-08-10 07:00:00,
2013-08-10 07:52:00,71.0,63.0,30.15,North,350,22.0,-999.0,75,-99.99,,,-99.99,,2013-08-10 07:52:00,
2013-08-10 10:00:00,72.0,61.0,30.21,North,360,14.0,-999.0,68,-99.99,,,-99.99,,2013-08-10 10:00:00,
2013-08-10 10:33:00,72.0,61.0,30.21,North,360,14.0,-999.0,68,-99.99,,,-99.99,,2013-08-10 10:33:00,
2013-08-10 10:43:00,72.0,61.0,30.21,North,360,14.0,-999.0,68,-99.99,,,-99.99,,2013-08-10 10:43:00,
2013-08-10 10:52:00,72.0,61.0,30.21,North,360,14.0,-999.0,68,-99.99,,,-99.99,,2013-08-10 10:52:00,
2013-08-10 11:00:00,73.0,63.0,30.22,NNE,20,12.0,-999.0,68,-99.99,,,-99.99,,2013-08-10 11:00:00,
2013-08-10 11:33:00,73.0,63.0,30.22,NNE,20,12.0,-999.0,68,-99.99,,,-99.99,,2013-08-10 11:33:00,
2013-08-10 11:43:00,73.0,63.0,30.22,NNE,20,12.0,-999.0,68,-99.99,,,-99.99,,2013-08-10 11:43:00,
2013-08-10 11:52:00,73.0,63.0,30.22,NNE,20,12.0,-999.0,68,-99.99,,,-99.99,,2013-08-10 11:52:00,
2013-08-10 12:00:00,73.0,63.0,30.23,NNE,20,9.0,-999.0,68,-99.99,,,-99.99,,2013-08-10 12:00:00,
2013-08-10 12:42:00,73.0,63.0,30.23,NNE,20,9.0,-999.0,68,-99.99,,,-99.99,,2013-08-10 12:42:00,
2013-08-10 12:52:00,73.0,63.0,30.23,NNE,20,9.0,-999.0,68,-99.99,,,-99.99,,2013-08-10 12:52:00,
2013-08-10 15:00:00,75.0,59.0,30.24,North,360,10.0,-999.0,57,-99.99,,,-99.99,,2013-08-10 15:00:00,
2013-08-10 15:33:00,75.0,59.0,30.24,North,360,10.0,-999.0,57,-99.99,,,-99.99,,2013-08-10 15:33:00,
2013-08-10 15:43:00,75.0,59.0,30.24,North,360,10.0,-999.0,57,-99.99,,,-99.99,,2013-08-10 15:43:00,
2013-08-10 15:52:00,75.0,59.0,30.24,North,360,10.0,-999.0,57,-99.99,,,-99.99,,2013-08-10 15:52:00,
2013-08-10 16:00:00,75.0,61.0,30.22,North,360,10.0,-999.0,60,-99.99,,,-99.99,,2013-08-10 16:00:00,
2013-08-10 16:32:00,75.0,61.0,30.22,North,360,10.0,-999.0,60,-99.99,,,-99.99,,2013-08-10 16:32:00,
2013-08-10 16:43:00,75.0,61.0,30.22,North,360,10.0,-999.0,60,-99.99,,,-99.99,,2013-08-10 16:43:00,
2013-08-10 16:53:00,75.0,61.0,30.22,North,360,10.0,-999.0,60,-99.99,,,-99.99,,2013-08-10 16:53:00,
2013-08-10 17:00:00,75.0,61.0,30.22,NE,50,10.0,-999.0,60,-99.99,,,-99.99,,2013-08-10 17:00:00,
2013-08-10 17:11:00,75.0,61.0,30.22,NE,50,10.0,-999.0,60,-99.99,,,-99.99,,2013-08-10 17:11:00,
2013-08-10 17:21:00,75.0,61.0,30.22,NE,50,10.0,-999.0,60,-99.99,,,-99.99,,2013-08-10 17:21:00,
2013-08-10 17:33:00,75.0,61.0,30.22,NE,50,10.0,-999.0,60,-99.99,,,-99.99,,2013-08-10 17:33:00,
2013-08-10 17:43:00,75.0,61.0,30.22,NE,50,10.0,-999.0,60,-99.99,,,-99.99,,2013-08-10 17:43:00,
2013-08-10 17:52:00,75.0,61.0,30.22,NE,50,10.0,-999.0,60,-99.99,,,-99.99,,2013-08-10 17:52:00,
2013-08-10 19:00:00,78.0,73.0,30.22,North,360,2.0,-999.0,86,-99.99,,,-99.99,,2013-08-10 19:00:00,
2013-08-10 21:00:00,79.0,68.0,30.21,ESE,110,6.0,-999.0,69,-99.99,,,-99.99,,2013-08-10 21:00:00,
2013-08-10 21:52:00,79.0,68.0,30.21,ESE,110,6.0,-999.0,69,-99.99,,,-99.99,,2013-08-10 21:52:00,
2013-08-10 23:00:00,75.0,68.0,30.18,SSW,200,12.0,-999.0,78,-99.99,,,-99.99,,2013-08-10 23:00:00,
2013-08-10 23:22:00,75.0,68.0,30.18,SSW,200,12.0,-999.0,78,-99.99,,,-99.99,,2013-08-10 23:22:00,
2013-08-10 23:32:00,75.0,68.0,30.18,SSW,200,12.0,-999.0,78,-99.99,,,-99.99,,2013-08-10 23:32:00,
2013-08-10 23:43:00,75.0,68.0,30.18,SSW,200,12.0,-999.0,78,-99.99,,,-99.99,,2013-08-10 23:43:00,
2013-08-10 23:53:00,75.0,68.0,30.18,SSW,200,12.0,-999.0,78,-99.99,,,-99.99,,2013-08-10 23:53:00,